Time;durP1;ratioP1;P1;durP2;ratioP2;P2;SDS_P1;SDS_P2;PMS_P1;PMS_P2;Temp;Humidity;BMP_temperature;BMP_pressure;BME280_temperature;BME280_humidity;BME280_pressure;Samples;Min_cycle;Max_cycle;Signal;HPM_P1;HPM_P2
2023/07/11 00:00:08;;;;;;;;;;;30.20;62.90;;;;;;5115357;27;43077;-77
2023/07/11 00:02:33;;;;;;;;;;;30.20;62.50;;;;;;5136900;27;44492;-78
2023/07/11 00:05:00;;;;;;;;;;;30.10;62.40;;;;;;5145625;27;42902;-78
2023/07/11 00:07:25;;;;;;;;;;;30.20;63.20;;;;;;5145614;27;43301;-78
2023/07/11 00:09:51;;;;;;;;;;;30.20;63.10;;;;;;5146678;27;42949;-77
2023/07/11 00:12:17;;;;;;;;;;;30.20;63.10;;;;;;5145673;27;43477;-77
2023/07/11 00:14:43;;;;;;;;;;;30.20;63.00;;;;;;5126664;27;42897;-78
2023/07/11 00:17:09;;;;;;;;;;;30.20;63.00;;;;;;5144628;27;43677;-79
2023/07/11 00:19:54;;;;;;;;;;;30.10;62.90;;;;;;5145157;27;42985;-78
2023/07/11 00:22:20;;;;;;;;;;;30.10;62.30;;;;;;5146248;27;43649;-79
2023/07/11 00:24:46;;;;;;;;;;;30.10;62.30;;;;;;5146389;27;42772;-78
2023/07/11 00:27:12;;;;;;;;;;;30.10;62.30;;;;;;5144467;27;43390;-78
2023/07/11 00:29:38;;;;;;;;;;;30.10;62.90;;;;;;5136416;27;42881;-79
2023/07/11 00:32:04;;;;;;;;;;;30.10;62.30;;;;;;5142935;27;43456;-81
2023/07/11 00:34:29;;;;;;;;;;;30.20;62.80;;;;;;5135857;27;43107;-78
2023/07/11 00:36:55;;;;;;;;;;;30.10;62.30;;;;;;5126129;27;43705;-79
2023/07/11 00:39:20;;;;;;;;;;;30.10;62.70;;;;;;5125542;27;43281;-78
2023/07/11 00:41:46;;;;;;;;;;;30.10;62.80;;;;;;5133316;27;43474;-79
2023/07/11 00:44:15;;;;;;;;;;;30.10;62.80;;;;;;5137641;27;43045;-86
2023/07/11 00:46:41;;;;;;;;;;;30.10;62.10;;;;;;5125769;27;42931;-83
2023/07/11 00:49:08;;;;;;;;;;;30.10;62.70;;;;;;5137161;27;42932;-83
2023/07/11 00:51:37;;;;;;;;;;;30.10;62.10;;;;;;5145964;27;43594;-81
2023/07/11 00:54:05;;;;;;;;;;;30.10;62.60;;;;;;5145144;27;42976;-81
2023/07/11 00:56:33;;;;;;;;;;;30.10;62.60;;;;;;5144133;27;43941;-77
2023/07/11 00:58:59;;;;;;;;;;;30.10;62.10;;;;;;5139275;27;43813;-80
2023/07/11 01:01:25;;;;;;;;;;;30.10;62.60;;;;;;5143088;27;44040;-78
2023/07/11 01:03:51;;;;;;;;;;;30.10;62.60;;;;;;5145465;27;42876;-78
2023/07/11 01:06:19;;;;;;;;;;;30.10;62.40;;;;;;5144234;27;43047;-81
2023/07/11 01:08:45;;;;;;;;;;;30.10;62.40;;;;;;5144705;27;43041;-80
2023/07/11 01:11:11;;;;;;;;;;;30.10;61.90;;;;;;5144509;27;42970;-76
2023/07/11 01:13:36;;;;;;;;;;;30.10;62.40;;;;;;5146144;27;42917;-79
2023/07/11 01:16:02;;;;;;;;;;;30.10;61.90;;;;;;5140402;27;43565;-77
2023/07/11 01:18:27;;;;;;;;;;;30.10;62.00;;;;;;5137587;27;42989;-78
2023/07/11 01:20:53;;;;;;;;;;;30.10;61.90;;;;;;5145095;27;43593;-79
2023/07/11 01:23:20;;;;;;;;;;;30.10;62.40;;;;;;5144728;27;42973;-78
2023/07/11 01:25:46;;;;;;;;;;;30.10;62.30;;;;;;5139395;27;43472;-79
2023/07/11 01:28:13;;;;;;;;;;;30.10;62.60;;;;;;5134162;27;43273;-78
2023/07/11 01:30:38;;;;;;;;;;;30.10;62.60;;;;;;5136693;27;43410;-82
2023/07/11 01:33:04;;;;;;;;;;;30.10;62.10;;;;;;5148839;27;43046;-79
2023/07/11 01:35:30;;;;;;;;;;;30.10;62.50;;;;;;5147213;27;43743;-80
2023/07/11 01:37:55;;;;;;;;;;;30.10;62.60;;;;;;5141345;27;42953;-78
2023/07/11 01:40:21;;;;;;;;;;;30.00;62.00;;;;;;5116203;27;43544;-79
2023/07/11 01:42:48;;;;;;;;;;;30.10;62.10;;;;;;5149323;27;42955;-78
2023/07/11 01:45:14;;;;;;;;;;;30.00;62.50;;;;;;5117249;27;42971;-81
2023/07/11 01:47:40;;;;;;;;;;;30.00;62.50;;;;;;5149529;27;42960;-78
2023/07/11 01:50:06;;;;;;;;;;;30.10;62.40;;;;;;5148340;27;42918;-82
2023/07/11 01:52:31;;;;;;;;;;;30.00;62.20;;;;;;5149317;27;42829;-81
2023/07/11 01:54:57;;;;;;;;;;;30.00;62.20;;;;;;5147240;27;43591;-81
2023/07/11 01:57:22;;;;;;;;;;;30.00;62.10;;;;;;5127956;27;42958;-77
2023/07/11 01:59:49;;;;;;;;;;;30.10;61.60;;;;;;5128011;27;43189;-79
2023/07/11 02:02:15;;;;;;;;;;;30.00;61.20;;;;;;5128862;27;42950;-80
2023/07/11 02:04:40;;;;;;;;;;;30.00;61.40;;;;;;5131394;27;43855;-79
2023/07/11 02:07:06;;;;;;;;;;;30.00;61.30;;;;;;5143226;27;42885;-77
2023/07/11 02:09:32;;;;;;;;;;;29.90;60.90;;;;;;5129899;27;43918;-78
2023/07/11 02:11:57;;;;;;;;;;;29.90;61.40;;;;;;5145961;27;42866;-77
2023/07/11 02:14:23;;;;;;;;;;;29.90;61.30;;;;;;5147801;27;43089;-84
2023/07/11 02:16:49;;;;;;;;;;;29.90;61.10;;;;;;5147731;27;42864;-86
2023/07/11 02:19:16;;;;;;;;;;;29.90;60.90;;;;;;5148303;27;42991;-79
2023/07/11 02:21:41;;;;;;;;;;;29.90;61.00;;;;;;5144771;27;42934;-77
2023/07/11 02:24:10;;;;;;;;;;;29.90;60.90;;;;;;5134292;27;43425;-78
2023/07/11 02:26:36;;;;;;;;;;;29.90;60.40;;;;;;5137835;27;42904;-77
2023/07/11 02:29:02;;;;;;;;;;;29.90;60.50;;;;;;5148250;27;42909;-78
2023/07/11 02:31:27;;;;;;;;;;;29.90;61.30;;;;;;5135625;27;43078;-81
2023/07/11 02:33:53;;;;;;;;;;;29.90;61.20;;;;;;5136824;27;43667;-82
2023/07/11 02:36:19;;;;;;;;;;;29.90;61.40;;;;;;5141183;27;43044;-79
2023/07/11 02:38:44;;;;;;;;;;;29.90;61.30;;;;;;5120364;27;42996;-84
2023/07/11 02:41:10;;;;;;;;;;;29.90;61.30;;;;;;5127991;27;42974;-78
2023/07/11 02:43:35;;;;;;;;;;;29.90;61.10;;;;;;5127137;27;43586;-79
2023/07/11 02:46:01;;;;;;;;;;;29.90;60.50;;;;;;5134003;27;43178;-85
2023/07/11 02:48:27;;;;;;;;;;;29.80;60.80;;;;;;5133839;27;43538;-77
2023/07/11 02:50:52;;;;;;;;;;;29.80;60.90;;;;;;5146871;27;42926;-79
2023/07/11 02:53:18;;;;;;;;;;;29.80;60.80;;;;;;5127878;27;43460;-77
2023/07/11 02:55:43;;;;;;;;;;;29.90;60.90;;;;;;5137671;27;43709;-78
2023/07/11 02:58:10;;;;;;;;;;;29.80;61.60;;;;;;5132935;27;43480;-79
2023/07/11 03:00:36;;;;;;;;;;;29.70;61.80;;;;;;5113279;27;42871;-77
2023/07/11 03:03:02;;;;;;;;;;;29.70;61.60;;;;;;5128151;27;42850;-81
2023/07/11 03:05:27;;;;;;;;;;;29.70;61.60;;;;;;5133414;27;42937;-77
2023/07/11 03:07:53;;;;;;;;;;;29.60;61.40;;;;;;5146336;27;42964;-82
2023/07/11 03:10:18;;;;;;;;;;;29.60;61.90;;;;;;5140716;27;42904;-80
2023/07/11 03:12:44;;;;;;;;;;;29.50;61.20;;;;;;5126703;27;42842;-85
2023/07/11 03:15:10;;;;;;;;;;;29.50;61.30;;;;;;5127520;27;43099;-81
2023/07/11 03:17:35;;;;;;;;;;;29.50;61.20;;;;;;5139088;27;43997;-84
2023/07/11 03:20:01;;;;;;;;;;;29.50;61.80;;;;;;5145218;27;43105;-76
2023/07/11 03:22:27;;;;;;;;;;;29.50;61.60;;;;;;5132574;27;43276;-81
2023/07/11 03:24:52;;;;;;;;;;;29.50;62.10;;;;;;5133130;27;42940;-81
2023/07/11 03:27:18;;;;;;;;;;;29.50;62.30;;;;;;5140964;27;42957;-81
2023/07/11 03:29:43;;;;;;;;;;;29.50;62.20;;;;;;5127018;27;42978;-77
2023/07/11 03:32:09;;;;;;;;;;;29.50;62.20;;;;;;5146099;27;42892;-78
2023/07/11 03:34:35;;;;;;;;;;;29.50;62.30;;;;;;5132338;27;43017;-78
2023/07/11 03:37:01;;;;;;;;;;;29.40;61.80;;;;;;5147067;27;43917;-77
2023/07/11 03:39:26;;;;;;;;;;;29.50;62.60;;;;;;5142989;27;43112;-77
2023/07/11 03:41:52;;;;;;;;;;;29.50;62.80;;;;;;5139721;27;43025;-81
2023/07/11 03:44:17;;;;;;;;;;;29.40;62.50;;;;;;5140019;27;42845;-77
2023/07/11 03:46:43;;;;;;;;;;;29.40;62.40;;;;;;5140248;27;42976;-80
2023/07/11 03:49:09;;;;;;;;;;;29.40;62.50;;;;;;5120197;27;42997;-77
2023/07/11 03:51:35;;;;;;;;;;;29.40;62.00;;;;;;5126768;27;43302;-78
2023/07/11 03:54:00;;;;;;;;;;;29.40;62.50;;;;;;5134717;27;43023;-78
2023/07/11 03:56:27;;;;;;;;;;;29.40;61.90;;;;;;5134943;27;42984;-82
2023/07/11 03:58:52;;;;;;;;;;;29.30;61.90;;;;;;5138147;27;43073;-82
2023/07/11 04:01:18;;;;;;;;;;;29.30;62.40;;;;;;5117998;27;44912;-78
2023/07/11 04:03:43;;;;;;;;;;;29.30;61.90;;;;;;5139075;27;43010;-78
2023/07/11 04:06:09;;;;;;;;;;;29.40;62.50;;;;;;5145672;27;43272;-79
2023/07/11 04:08:35;;;;;;;;;;;29.30;61.80;;;;;;5146657;27;42932;-81
2023/07/11 04:11:00;;;;;;;;;;;29.40;61.90;;;;;;5145882;27;42970;-81
2023/07/11 04:13:26;;;;;;;;;;;29.40;62.40;;;;;;5133327;27;43250;-79
2023/07/11 04:15:52;;;;;;;;;;;29.40;62.50;;;;;;5127167;27;42816;-83
2023/07/11 04:18:17;;;;;;;;;;;29.40;62.40;;;;;;5140979;27;42922;-81
2023/07/11 04:20:44;;;;;;;;;;;29.40;62.30;;;;;;5126240;27;42969;-77
2023/07/11 04:23:09;;;;;;;;;;;29.40;61.70;;;;;;5126716;27;42916;-83
2023/07/11 04:25:34;;;;;;;;;;;29.40;61.70;;;;;;5131222;27;43022;-84
2023/07/11 04:28:00;;;;;;;;;;;29.40;61.70;;;;;;5134829;27;42884;-82
2023/07/11 04:30:25;;;;;;;;;;;29.40;61.80;;;;;;5140809;27;43795;-84
2023/07/11 04:32:51;;;;;;;;;;;29.40;62.50;;;;;;5138082;27;42872;-78
2023/07/11 04:35:17;;;;;;;;;;;29.50;62.90;;;;;;5143007;27;44461;-78
2023/07/11 04:37:43;;;;;;;;;;;29.40;62.90;;;;;;5138171;27;43081;-79
2023/07/11 04:40:09;;;;;;;;;;;29.40;62.70;;;;;;5140457;27;42904;-78
2023/07/11 04:42:34;;;;;;;;;;;29.50;63.20;;;;;;5131305;27;42855;-81
2023/07/11 04:45:00;;;;;;;;;;;29.50;62.70;;;;;;5141338;27;42980;-78
2023/07/11 04:47:25;;;;;;;;;;;29.50;63.30;;;;;;5140731;27;42908;-77
2023/07/11 04:49:51;;;;;;;;;;;29.50;63.40;;;;;;5144142;27;43567;-76
2023/07/11 04:52:16;;;;;;;;;;;29.50;63.40;;;;;;5145592;27;42903;-77
2023/07/11 04:54:43;;;;;;;;;;;29.50;63.30;;;;;;5131662;27;43005;-76
2023/07/11 04:57:09;;;;;;;;;;;29.50;63.40;;;;;;5145660;27;42954;-77
2023/07/11 04:59:34;;;;;;;;;;;29.50;63.50;;;;;;5130794;27;43247;-82
2023/07/11 05:02:00;;;;;;;;;;;29.60;63.50;;;;;;5137347;27;43177;-76
2023/07/11 05:04:25;;;;;;;;;;;29.50;62.60;;;;;;5144689;27;44178;-77
2023/07/11 05:06:51;;;;;;;;;;;29.60;62.90;;;;;;5121866;27;42999;-77
2023/07/11 05:09:17;;;;;;;;;;;29.60;61.90;;;;;;5137311;27;43468;-76
2023/07/11 05:11:42;;;;;;;;;;;29.60;61.80;;;;;;5145021;27;43013;-76
2023/07/11 05:14:08;;;;;;;;;;;29.60;61.80;;;;;;5123671;27;43741;-75
2023/07/11 05:16:33;;;;;;;;;;;29.60;62.10;;;;;;5132421;27;42932;-75
2023/07/11 05:18:59;;;;;;;;;;;29.60;61.40;;;;;;5145229;27;43322;-75
2023/07/11 05:21:25;;;;;;;;;;;29.60;61.40;;;;;;5144855;27;42908;-76
2023/07/11 05:23:51;;;;;;;;;;;;;;;;;;5132921;27;43564;-77
2023/07/11 05:26:17;;;;;;;;;;;29.60;61.30;;;;;;5145561;27;42948;-77
2023/07/11 05:28:44;;;;;;;;;;;29.70;62.10;;;;;;5144516;27;43185;-76
2023/07/11 05:31:09;;;;;;;;;;;29.70;62.10;;;;;;5145230;27;42987;-80
2023/07/11 05:33:35;;;;;;;;;;;29.70;62.00;;;;;;5144954;27;43142;-76
2023/07/11 05:36:23;;;;;;;;;;;29.70;61.40;;;;;;5132489;27;43043;-76
2023/07/11 05:38:48;;;;;;;;;;;29.80;61.90;;;;;;5133065;27;42921;-78
2023/07/11 05:41:14;;;;;;;;;;;29.70;61.20;;;;;;5125879;27;42953;-79
2023/07/11 05:43:40;;;;;;;;;;;29.80;61.30;;;;;;5133179;27;44055;-85
2023/07/11 05:46:05;;;;;;;;;;;29.80;61.80;;;;;;5132104;27;42978;-82
2023/07/11 05:48:31;;;;;;;;;;;29.80;61.30;;;;;;5140554;27;42959;-84
2023/07/11 05:51:01;;;;;;;;;;;29.80;61.30;;;;;;5127359;27;42983;-75
2023/07/11 05:53:26;;;;;;;;;;;29.80;61.80;;;;;;5145246;27;43500;-82
2023/07/11 05:55:52;;;;;;;;;;;29.90;61.70;;;;;;5146452;27;42913;-77
2023/07/11 05:58:18;;;;;;;;;;;29.80;61.10;;;;;;5138110;27;43005;-77
2023/07/11 06:00:44;;;;;;;;;;;29.90;61.20;;;;;;5145925;27;42875;-75
2023/07/11 06:03:09;;;;;;;;;;;29.90;61.20;;;;;;5145686;27;42882;-77
2023/07/11 06:05:35;;;;;;;;;;;29.90;61.30;;;;;;5142819;27;42932;-79
2023/07/11 06:08:00;;;;;;;;;;;29.80;61.30;;;;;;5125182;27;43499;-78
2023/07/11 06:10:28;;;;;;;;;;;29.80;61.70;;;;;;5125856;27;42954;-82
2023/07/11 06:12:53;;;;;;;;;;;29.90;61.70;;;;;;5135268;27;43165;-81
2023/07/11 06:15:19;;;;;;;;;;;29.80;61.80;;;;;;5144954;27;42934;-78
2023/07/11 06:17:44;;;;;;;;;;;29.90;61.40;;;;;;5138864;27;43550;-78
2023/07/11 06:20:11;;;;;;;;;;;29.90;62.00;;;;;;5142358;27;42778;-78
2023/07/11 06:22:36;;;;;;;;;;;29.90;61.40;;;;;;5138600;27;42979;-79
2023/07/11 06:25:02;;;;;;;;;;;29.90;61.40;;;;;;5132297;27;42953;-80
2023/07/11 06:27:28;;;;;;;;;;;29.90;61.40;;;;;;5128505;27;43601;-79
2023/07/11 06:29:54;;;;;;;;;;;29.90;61.40;;;;;;5144680;27;42905;-77
2023/07/11 06:32:20;;;;;;;;;;;29.90;61.30;;;;;;5129791;27;45495;-78
2023/07/11 06:34:45;;;;;;;;;;;29.90;61.30;;;;;;5148001;27;42927;-83
2023/07/11 06:37:11;;;;;;;;;;;29.90;61.30;;;;;;5148077;27;42912;-80
2023/07/11 06:39:37;;;;;;;;;;;29.90;61.40;;;;;;5115092;27;42805;-78
2023/07/11 06:42:02;;;;;;;;;;;29.90;62.10;;;;;;5136618;27;42805;-82
2023/07/11 06:44:30;;;;;;;;;;;29.90;61.40;;;;;;5133259;27;43019;-77
2023/07/11 06:46:55;;;;;;;;;;;29.90;61.30;;;;;;5109035;27;43096;-80
2023/07/11 06:49:21;;;;;;;;;;;29.90;62.00;;;;;;5143715;27;43034;-83
2023/07/11 06:51:48;;;;;;;;;;;29.90;61.40;;;;;;5148503;27;42958;-77
2023/07/11 06:54:13;;;;;;;;;;;29.90;61.40;;;;;;5134370;27;43054;-79
2023/07/11 06:56:39;;;;;;;;;;;29.90;61.50;;;;;;5140543;27;42971;-78
2023/07/11 06:59:04;;;;;;;;;;;29.90;61.60;;;;;;5141752;27;42997;-82
2023/07/11 07:01:30;;;;;;;;;;;30.00;61.80;;;;;;5127906;27;43845;-81
2023/07/11 07:03:55;;;;;;;;;;;29.90;61.70;;;;;;5141647;27;42878;-79
2023/07/11 07:06:21;;;;;;;;;;;29.90;62.00;;;;;;5135875;27;42925;-80
2023/07/11 07:08:47;;;;;;;;;;;30.00;62.80;;;;;;5133940;27;42929;-77
2023/07/11 07:11:12;;;;;;;;;;;29.80;62.00;;;;;;5128247;27;43028;-78
2023/07/11 07:13:38;;;;;;;;;;;30.00;62.60;;;;;;5128673;27;42892;-81
2023/07/11 07:16:03;;;;;;;;;;;30.00;61.90;;;;;;5127965;27;43656;-78
2023/07/11 07:18:34;;;;;;;;;;;30.00;62.40;;;;;;5129758;27;42838;-80
2023/07/11 07:21:01;;;;;;;;;;;29.90;62.10;;;;;;5138763;27;43344;-82
2023/07/11 07:23:26;;;;;;;;;;;29.90;62.30;;;;;;5142789;27;43052;-80
2023/07/11 07:25:53;;;;;;;;;;;29.90;62.60;;;;;;5137811;27;43415;-77
2023/07/11 07:28:19;;;;;;;;;;;30.00;62.00;;;;;;5142411;27;42933;-79
2023/07/11 07:30:49;;;;;;;;;;;30.00;61.90;;;;;;5147857;27;43364;-78
2023/07/11 07:33:15;;;;;;;;;;;30.00;62.20;;;;;;5144456;27;43707;-81
2023/07/11 07:35:43;;;;;;;;;;;30.00;61.70;;;;;;5136335;27;42876;-79
2023/07/11 07:38:10;;;;;;;;;;;30.00;61.70;;;;;;5125076;27;43010;-80
2023/07/11 07:40:36;;;;;;;;;;;29.90;61.60;;;;;;5108437;27;44024;-81
2023/07/11 07:43:01;;;;;;;;;;;30.00;62.10;;;;;;5141129;27;42921;-81
2023/07/11 07:45:27;;;;;;;;;;;30.00;61.30;;;;;;5127501;27;43906;-79
2023/07/11 07:47:53;;;;;;;;;;;30.00;61.40;;;;;;5128177;27;42988;-84
2023/07/11 07:50:18;;;;;;;;;;;30.10;61.30;;;;;;5126549;27;43897;-78
2023/07/11 07:52:44;;;;;;;;;;;30.10;61.30;;;;;;5127071;27;43209;-77
2023/07/11 07:55:09;;;;;;;;;;;30.10;61.30;;;;;;5136408;27;44106;-78
2023/07/11 07:57:35;;;;;;;;;;;30.10;61.30;;;;;;5131087;27;43051;-78
2023/07/11 08:00:02;;;;;;;;;;;30.10;61.30;;;;;;5136228;27;43763;-78
2023/07/11 08:02:31;;;;;;;;;;;30.10;61.20;;;;;;5131152;27;43001;-78
2023/07/11 08:04:59;;;;;;;;;;;30.10;61.20;;;;;;5136749;27;43527;-78
2023/07/11 08:07:25;;;;;;;;;;;30.20;61.20;;;;;;5131051;27;42957;-82
2023/07/11 08:09:53;;;;;;;;;;;30.10;61.10;;;;;;5137569;27;43222;-78
2023/07/11 08:12:18;;;;;;;;;;;30.10;61.00;;;;;;5114843;27;43116;-78
2023/07/11 08:14:44;;;;;;;;;;;30.20;61.10;;;;;;5146747;27;42981;-78
2023/07/11 08:17:10;;;;;;;;;;;30.00;60.90;;;;;;5112853;27;42755;-78
2023/07/11 08:19:36;;;;;;;;;;;30.10;61.00;;;;;;5128070;27;42963;-81
2023/07/11 08:22:01;;;;;;;;;;;30.10;60.90;;;;;;5129371;27;42892;-80
2023/07/11 08:24:27;;;;;;;;;;;30.10;60.80;;;;;;5137241;27;44383;-78
2023/07/11 08:26:53;;;;;;;;;;;30.10;60.70;;;;;;5144667;27;42981;-79
2023/07/11 08:29:19;;;;;;;;;;;30.10;60.60;;;;;;5127896;27;43835;-84
2023/07/11 08:31:44;;;;;;;;;;;30.10;60.50;;;;;;5141191;27;42952;-82
2023/07/11 08:34:10;;;;;;;;;;;30.10;60.30;;;;;;5127344;27;43012;-78
2023/07/11 08:36:38;;;;;;;;;;;30.20;60.40;;;;;;5128383;27;42941;-82
2023/07/11 08:39:04;;;;;;;;;;;30.20;60.40;;;;;;5135972;27;43546;-82
2023/07/11 08:41:39;;;;;;;;;;;30.20;60.40;;;;;;5128864;27;42926;-86
2023/07/11 08:44:12;;;;;;;;;;;30.20;60.40;;;;;;5137816;27;43021;-80
2023/07/11 08:46:40;;;;;;;;;;;30.20;60.40;;;;;;5146715;27;42928;-83
2023/07/11 08:49:07;;;;;;;;;;;30.10;60.50;;;;;;5147444;27;43444;-84
2023/07/11 08:51:40;;;;;;;;;;;30.10;61.00;;;;;;5146344;27;43040;-82
2023/07/11 08:54:12;;;;;;;;;;;30.10;60.80;;;;;;5146216;27;43511;-80
2023/07/11 08:56:39;;;;;;;;;;;30.20;60.80;;;;;;5126385;27;42992;-78
2023/07/11 08:59:06;;;;;;;;;;;30.10;60.60;;;;;;5126552;27;43521;-81
2023/07/11 09:01:36;;;;;;;;;;;30.20;60.40;;;;;;5134284;27;42925;-81
2023/07/11 09:04:03;;;;;;;;;;;30.20;60.40;;;;;;5113834;27;43251;-80
2023/07/11 09:06:37;;;;;;;;;;;30.30;60.40;;;;;;5146330;27;42974;-80
2023/07/11 09:09:04;;;;;;;;;;;30.20;60.60;;;;;;5128568;27;43809;-77
2023/07/11 09:11:48;;;;;;;;;;;30.20;60.60;;;;;;5126133;27;42747;-76
2023/07/11 09:14:16;;;;;;;;;;;30.20;61.20;;;;;;5125657;27;42917;-78
2023/07/11 09:16:51;;;;;;;;;;;30.20;61.20;;;;;;5126490;27;42820;-78
2023/07/11 09:19:31;;;;;;;;;;;30.20;60.50;;;;;;5126412;27;43356;-78
2023/07/11 09:22:19;;;;;;;;;;;30.20;60.40;;;;;;5129884;27;42976;-85
2023/07/11 09:24:52;;;;;;;;;;;30.20;60.40;;;;;;5119005;27;42858;-84
2023/07/11 09:27:20;;;;;;;;;;;30.20;60.40;;;;;;5133575;27;42923;-78
2023/07/11 09:29:47;;;;;;;;;;;30.30;60.50;;;;;;5145742;27;43882;-79
2023/07/11 09:32:13;;;;;;;;;;;30.30;60.40;;;;;;5146672;27;42865;-78
2023/07/11 09:34:42;;;;;;;;;;;30.20;60.30;;;;;;5145237;27;43820;-79
2023/07/11 09:37:14;;;;;;;;;;;30.30;60.20;;;;;;5145655;27;42934;-77
2023/07/11 09:39:39;;;;;;;;;;;30.20;60.00;;;;;;5145607;27;43040;-78
2023/07/11 09:42:16;;;;;;;;;;;30.20;60.50;;;;;;5146081;27;42874;-78
2023/07/11 09:44:42;;;;;;;;;;;30.20;60.10;;;;;;5145265;27;43629;-78
2023/07/11 09:47:17;;;;;;;;;;;30.20;60.20;;;;;;5145403;27;43043;-80
2023/07/11 09:49:44;;;;;;;;;;;30.20;60.10;;;;;;5145220;27;43067;-77
2023/07/11 09:52:13;;;;;;;;;;;30.20;60.00;;;;;;5148576;27;42987;-77
2023/07/11 09:54:43;;;;;;;;;;;30.30;59.90;;;;;;5128496;27;44408;-79
2023/07/11 09:57:11;;;;;;;;;;;30.30;59.90;;;;;;5149342;27;42964;-78
2023/07/11 09:59:38;;;;;;;;;;;30.30;59.80;;;;;;5149156;27;42942;-78
2023/07/11 10:02:04;;;;;;;;;;;30.30;60.10;;;;;;5137077;27;43023;-77
2023/07/11 10:04:31;;;;;;;;;;;30.30;59.50;;;;;;5133728;27;42989;-77
2023/07/11 10:06:58;;;;;;;;;;;30.30;59.50;;;;;;5148980;27;42928;-78
2023/07/11 10:09:28;;;;;;;;;;;30.40;59.60;;;;;;5134694;27;43548;-80
2023/07/11 10:11:55;;;;;;;;;;;30.30;60.00;;;;;;5148770;27;42897;-79
2023/07/11 10:14:23;;;;;;;;;;;30.30;60.10;;;;;;5149202;27;43574;-81
2023/07/11 10:16:49;;;;;;;;;;;30.30;59.50;;;;;;5148643;27;42985;-77
2023/07/11 10:19:15;;;;;;;;;;;30.30;59.30;;;;;;5128621;27;42901;-78
2023/07/11 10:21:43;;;;;;;;;;;30.30;59.30;;;;;;5142702;27;44081;-80
2023/07/11 10:24:14;;;;;;;;;;;30.30;58.80;;;;;;5148664;27;43578;-78
2023/07/11 10:26:39;;;;;;;;;;;30.30;58.50;;;;;;5127953;27;43254;-79
2023/07/11 10:29:11;;;;;;;;;;;30.30;58.30;;;;;;5128248;27;42960;-79
2023/07/11 10:31:44;;;;;;;;;;;30.30;58.60;;;;;;5129065;27;42963;-78
2023/07/11 10:34:27;;;;;;;;;;;30.30;58.40;;;;;;5137913;27;43798;-78
2023/07/11 10:36:56;;;;;;;;;;;30.30;58.10;;;;;;5147499;27;43016;-79
2023/07/11 10:39:27;;;;;;;;;;;30.30;58.20;;;;;;5135849;27;43516;-79
2023/07/11 10:42:01;;;;;;;;;;;30.30;57.90;;;;;;5128173;27;42965;-80
2023/07/11 10:44:34;;;;;;;;;;;30.30;58.30;;;;;;5141604;27;42881;-78
2023/07/11 10:46:59;;;;;;;;;;;30.30;58.30;;;;;;5137455;27;42905;-78
2023/07/11 10:49:27;;;;;;;;;;;30.30;58.40;;;;;;5145988;27;43468;-78
2023/07/11 10:52:01;;;;;;;;;;;30.30;58.30;;;;;;5137572;27;42987;-78
2023/07/11 10:54:38;;;;;;;;;;;30.30;58.80;;;;;;5144701;27;43026;-79
2023/07/11 10:57:10;;;;;;;;;;;30.40;58.40;;;;;;5129289;27;42967;-81
2023/07/11 10:59:36;;;;;;;;;;;30.40;58.90;;;;;;5145362;27;43556;-80
2023/07/11 11:02:05;;;;;;;;;;;30.40;58.40;;;;;;5135472;27;42911;-78
2023/07/11 11:04:43;;;;;;;;;;;30.40;58.80;;;;;;5140208;27;43576;-82
2023/07/11 11:07:19;;;;;;;;;;;30.40;58.30;;;;;;5130631;27;43000;-83
2023/07/11 11:10:01;;;;;;;;;;;30.40;58.70;;;;;;5138210;27;42820;-80
2023/07/11 11:12:34;;;;;;;;;;;30.40;58.30;;;;;;5135413;27;42895;-77
2023/07/11 11:15:18;;;;;;;;;;;30.40;58.40;;;;;;5136279;27;43627;-78
2023/07/11 11:17:46;;;;;;;;;;;30.40;58.50;;;;;;5129470;27;42912;-81
2023/07/11 11:20:25;;;;;;;;;;;30.40;59.00;;;;;;5130944;27;43548;-81
2023/07/11 11:22:50;;;;;;;;;;;30.40;58.60;;;;;;5129327;27;43115;-78
2023/07/11 11:25:25;;;;;;;;;;;30.40;58.60;;;;;;5113923;27;43175;-79
2023/07/11 11:27:56;;;;;;;;;;;30.40;58.70;;;;;;5136679;27;42837;-78
2023/07/11 11:30:28;;;;;;;;;;;30.40;59.20;;;;;;5110569;27;44195;-78
2023/07/11 11:32:53;;;;;;;;;;;30.50;58.90;;;;;;5141186;27;42983;-78
2023/07/11 11:35:28;;;;;;;;;;;30.50;59.30;;;;;;5129383;27;42871;-79
2023/07/11 11:37:56;;;;;;;;;;;30.40;59.30;;;;;;5141454;27;43871;-80
2023/07/11 11:40:23;;;;;;;;;;;30.50;59.40;;;;;;5134970;27;43642;-82
2023/07/11 11:42:53;;;;;;;;;;;30.50;59.50;;;;;;5146980;27;42992;-85
2023/07/11 11:45:23;;;;;;;;;;;30.40;59.30;;;;;;5146559;27;43835;-78
2023/07/11 11:47:53;;;;;;;;;;;30.40;59.70;;;;;;5147582;27;43080;-83
2023/07/11 11:50:21;;;;;;;;;;;30.50;59.70;;;;;;5137023;27;43030;-78
2023/07/11 11:52:54;;;;;;;;;;;30.50;59.70;;;;;;5127516;27;42901;-81
2023/07/11 11:55:36;;;;;;;;;;;30.50;59.20;;;;;;5126041;27;42912;-86
2023/07/11 11:58:02;;;;;;;;;;;30.50;59.70;;;;;;5147301;27;43217;-84
2023/07/11 12:00:38;;;;;;;;;;;30.50;59.20;;;;;;5147257;27;43748;-80
2023/07/11 12:03:05;;;;;;;;;;;30.50;59.80;;;;;;5127996;27;43045;-82
2023/07/11 12:05:33;;;;;;;;;;;30.50;59.50;;;;;;5140983;27;43041;-78
2023/07/11 12:08:17;;;;;;;;;;;30.50;59.50;;;;;;5116217;27;43073;-85
2023/07/11 12:11:00;;;;;;;;;;;30.50;60.00;;;;;;5130061;27;43681;-78
2023/07/11 12:13:28;;;;;;;;;;;30.60;59.50;;;;;;5127737;27;43042;-78
2023/07/11 12:15:54;;;;;;;;;;;30.50;59.40;;;;;;5127263;27;43824;-79
2023/07/11 12:18:35;;;;;;;;;;;30.50;59.80;;;;;;5140726;27;42989;-78
2023/07/11 12:21:24;;;;;;;;;;;30.60;59.80;;;;;;5147027;27;42952;-80
2023/07/11 12:23:51;;;;;;;;;;;30.60;59.40;;;;;;5109056;27;43075;-85
2023/07/11 12:26:19;;;;;;;;;;;30.60;60.00;;;;;;5126960;27;43035;-78
2023/07/11 12:28:45;;;;;;;;;;;30.60;60.00;;;;;;5133794;27;43735;-86
2023/07/11 12:31:18;;;;;;;;;;;30.60;60.00;;;;;;5146822;27;43329;-84
2023/07/11 12:33:54;;;;;;;;;;;30.60;59.90;;;;;;5133362;27;42865;-80
2023/07/11 12:36:22;;;;;;;;;;;30.60;59.40;;;;;;5113467;27;43761;-78
2023/07/11 12:38:54;;;;;;;;;;;30.60;59.90;;;;;;5144832;27;42948;-84
2023/07/11 12:41:25;;;;;;;;;;;30.60;60.20;;;;;;5126753;27;43868;-81
2023/07/11 12:43:52;;;;;;;;;;;30.60;60.10;;;;;;5147038;27;42940;-82
2023/07/11 12:46:22;;;;;;;;;;;30.60;59.70;;;;;;5145901;27;44347;-77
2023/07/11 12:48:49;;;;;;;;;;;30.60;60.00;;;;;;5146352;27;42946;-86
2023/07/11 12:51:21;;;;;;;;;;;30.60;60.10;;;;;;5146384;27;43748;-79
2023/07/11 12:53:48;;;;;;;;;;;30.60;59.60;;;;;;5146366;27;43002;-78
2023/07/11 12:56:14;;;;;;;;;;;30.60;59.60;;;;;;5146085;27;43787;-79
2023/07/11 12:58:39;;;;;;;;;;;30.60;59.70;;;;;;5146578;27;42936;-78
2023/07/11 13:01:10;;;;;;;;;;;30.60;59.70;;;;;;5132792;27;43601;-78
2023/07/11 13:03:38;;;;;;;;;;;30.70;60.20;;;;;;5146885;27;42957;-79
2023/07/11 13:06:05;;;;;;;;;;;30.60;60.30;;;;;;5140904;27;44155;-78
2023/07/11 13:08:32;;;;;;;;;;;30.60;59.90;;;;;;5126418;27;42949;-78
2023/07/11 13:10:59;;;;;;;;;;;30.70;60.10;;;;;;5106315;27;44090;-78
2023/07/11 13:13:26;;;;;;;;;;;30.60;60.20;;;;;;5138459;27;42899;-80
2023/07/11 13:15:51;;;;;;;;;;;30.70;60.80;;;;;;5145846;27;42823;-77
2023/07/11 13:18:26;;;;;;;;;;;30.70;60.90;;;;;;5146513;27;42893;-79
2023/07/11 13:20:51;;;;;;;;;;;30.70;61.20;;;;;;5138695;27;42845;-78
2023/07/11 13:23:17;;;;;;;;;;;30.70;60.70;;;;;;5125899;27;43071;-87
2023/07/11 13:25:43;;;;;;;;;;;30.70;60.60;;;;;;5125644;27;43001;-78
2023/07/11 13:28:20;;;;;;;;;;;30.70;60.80;;;;;;5124820;27;43079;-79
2023/07/11 13:30:45;;;;;;;;;;;30.70;60.70;;;;;;5122000;27;44539;-78
2023/07/11 13:33:15;;;;;;;;;;;30.70;61.30;;;;;;5129506;27;42885;-78
2023/07/11 13:35:58;;;;;;;;;;;30.70;61.30;;;;;;5139012;27;43389;-81
2023/07/11 13:38:55;;;;;;;;;;;30.70;61.20;;;;;;5144808;27;42900;-78
2023/07/11 13:44:34;;;;;;;;;;;30.70;61.40;;;;;;5142336;27;42936;-80
2023/07/11 13:47:10;;;;;;;;;;;30.70;61.40;;;;;;5140267;27;43060;-80
2023/07/11 13:49:41;;;;;;;;;;;30.70;61.20;;;;;;5129255;27;42933;-78
2023/07/11 13:52:17;;;;;;;;;;;30.70;61.70;;;;;;5128701;27;44204;-78
2023/07/11 13:54:49;;;;;;;;;;;30.80;61.00;;;;;;5123839;27;43007;-78
2023/07/11 13:57:16;;;;;;;;;;;30.70;60.90;;;;;;5142189;27;42958;-79
2023/07/11 13:59:41;;;;;;;;;;;30.70;61.10;;;;;;5128291;27;43132;-81
2023/07/11 14:02:14;;;;;;;;;;;30.80;61.20;;;;;;5128857;27;43538;-80
2023/07/11 14:04:40;;;;;;;;;;;30.80;61.20;;;;;;5128561;27;42791;-79
2023/07/11 14:07:07;;;;;;;;;;;30.70;61.20;;;;;;5142392;27;43460;-78
2023/07/11 14:09:33;;;;;;;;;;;30.80;61.30;;;;;;5148584;27;42988;-78
2023/07/11 14:11:58;;;;;;;;;;;30.80;61.40;;;;;;5148216;27;43052;-79
2023/07/11 14:14:25;;;;;;;;;;;30.80;61.40;;;;;;5148689;27;43005;-78
2023/07/11 14:16:50;;;;;;;;;;;30.80;62.00;;;;;;5135166;27;42988;-79
2023/07/11 14:19:24;;;;;;;;;;;30.80;61.30;;;;;;5141436;27;42957;-78
2023/07/11 14:21:50;;;;;;;;;;;30.80;61.30;;;;;;5141550;27;44348;-80
2023/07/11 14:24:15;;;;;;;;;;;30.80;61.50;;;;;;5128579;27;42979;-78